Time;durP1;ratioP1;P1;durP2;ratioP2;P2;SDS_P1;SDS_P2;PMS_P1;PMS_P2;Temp;Humidity;BMP_temperature;BMP_pressure;BME280_temperature;BME280_humidity;BME280_pressure;Samples;Min_cycle;Max_cycle;Signal;HPM_P1;HPM_P2
2024/01/02 00:01:53;;;;;;;15.18;6.20;;;5.70;99.90;;;;;;5054240;28;20040;-74
2024/01/02 00:04:19;;;;;;;13.25;5.25;;;5.70;99.90;;;;;;5054198;28;20072;-74
2024/01/02 00:06:48;;;;;;;17.80;6.50;;;5.70;99.90;;;;;;5054009;28;20041;-74
2024/01/02 00:09:19;;;;;;;21.08;6.47;;;5.70;99.90;;;;;;5053916;28;20565;-74
2024/01/02 00:11:45;;;;;;;16.20;6.43;;;5.80;99.90;;;;;;5054961;28;20166;-74
2024/01/02 00:14:11;;;;;;;12.98;4.45;;;5.80;99.90;;;;;;5053587;28;20551;-74
2024/01/02 00:16:39;;;;;;;15.55;4.57;;;5.80;99.90;;;;;;5055149;28;20044;-74
2024/01/02 00:19:05;;;;;;;15.52;4.25;;;5.80;99.90;;;;;;5053931;28;20073;-74
2024/01/02 00:21:30;;;;;;;15.40;5.20;;;5.80;99.90;;;;;;5053436;28;20154;-74
2024/01/02 00:23:57;;;;;;;13.40;5.03;;;5.70;99.90;;;;;;5053984;28;20052;-74
2024/01/02 00:26:23;;;;;;;13.60;4.38;;;5.70;99.90;;;;;;5054001;28;20061;-74
2024/01/02 00:28:49;;;;;;;16.08;4.47;;;5.70;99.90;;;;;;5053960;28;20125;-74
2024/01/02 00:31:17;;;;;;;13.35;5.28;;;5.80;99.90;;;;;;5053887;28;20114;-74
2024/01/02 00:33:43;;;;;;;20.40;5.57;;;5.70;99.90;;;;;;5053905;28;20084;-74
2024/01/02 00:36:12;;;;;;;15.40;4.60;;;5.80;99.90;;;;;;5053268;28;20080;-74
2024/01/02 00:38:38;;;;;;;13.65;4.90;;;5.80;99.90;;;;;;5054724;28;20044;-74
2024/01/02 00:41:04;;;;;;;19.27;5.40;;;5.70;99.90;;;;;;5053665;28;20126;-74
2024/01/02 00:43:30;;;;;;;12.43;4.55;;;5.70;99.90;;;;;;5053694;28;20052;-74
2024/01/02 00:45:57;;;;;;;11.30;4.22;;;5.80;99.90;;;;;;5053378;28;20043;-74
2024/01/02 00:48:23;;;;;;;11.20;4.40;;;5.70;99.90;;;;;;5053155;28;20143;-74
2024/01/02 00:50:48;;;;;;;12.25;4.78;;;5.80;99.90;;;;;;5053956;28;20123;-74
2024/01/02 00:53:14;;;;;;;10.38;4.00;;;5.80;99.90;;;;;;5053179;28;20084;-74
2024/01/02 00:55:39;;;;;;;10.20;3.78;;;5.70;99.90;;;;;;5053147;28;20139;-74
2024/01/02 00:58:05;;;;;;;12.60;3.67;;;5.70;99.90;;;;;;5054372;28;20048;-74
2024/01/02 01:00:31;;;;;;;9.63;3.53;;;5.70;99.90;;;;;;5054378;28;20045;-74
2024/01/02 01:02:56;;;;;;;12.68;3.80;;;5.70;99.90;;;;;;5053022;28;20048;-74
2024/01/02 01:05:22;;;;;;;11.93;3.83;;;5.80;99.90;;;;;;5053053;28;20076;-74
2024/01/02 01:07:50;;;;;;;11.95;3.63;;;5.70;99.90;;;;;;5052406;28;20479;-74
2024/01/02 01:10:17;;;;;;;13.25;3.97;;;5.70;99.90;;;;;;5052737;28;20448;-74
2024/01/02 01:12:45;;;;;;;11.20;4.13;;;5.70;99.90;;;;;;5052809;28;20491;-74
2024/01/02 01:15:11;;;;;;;12.27;4.22;;;5.70;99.90;;;;;;5052818;28;20495;-74
2024/01/02 01:17:37;;;;;;;19.95;4.50;;;5.70;99.90;;;;;;5052621;28;20519;-74
2024/01/02 01:20:03;;;;;;;17.40;3.80;;;5.80;99.90;;;;;;5052953;28;20056;-74
2024/01/02 01:22:29;;;;;;;12.63;4.05;;;5.70;99.90;;;;;;5052944;28;20072;-74
2024/01/02 01:24:54;;;;;;;15.35;3.80;;;5.80;99.90;;;;;;5052662;28;20377;-74
2024/01/02 01:27:20;;;;;;;12.55;3.40;;;5.80;99.90;;;;;;5052641;28;20045;-74
2024/01/02 01:29:46;;;;;;;11.27;4.13;;;5.70;99.90;;;;;;5053880;28;20087;-74
2024/01/02 01:32:12;;;;;;;12.70;3.70;;;5.80;99.90;;;;;;5052454;28;20559;-74
2024/01/02 01:34:38;;;;;;;14.88;3.92;;;5.80;99.90;;;;;;5053847;28;20036;-74
2024/01/02 01:37:04;;;;;;;13.23;3.33;;;5.80;99.90;;;;;;5052546;28;20372;-74
2024/01/02 01:39:30;;;;;;;13.60;3.25;;;5.80;99.90;;;;;;5052720;28;20049;-74
2024/01/02 01:41:56;;;;;;;9.77;3.60;;;5.80;99.90;;;;;;5052493;28;20041;-74
2024/01/02 01:44:21;;;;;;;15.55;3.83;;;5.80;99.90;;;;;;5051845;28;20056;-74
2024/01/02 01:46:47;;;;;;;15.73;4.25;;;5.80;99.90;;;;;;5052264;28;20045;-74
2024/01/02 01:49:14;;;;;;;15.75;4.18;;;5.80;99.90;;;;;;5052497;28;20091;-74
2024/01/02 01:51:42;;;;;;;14.80;4.05;;;5.80;99.90;;;;;;5053549;28;20442;-74
2024/01/02 01:54:12;;;;;;;13.48;3.42;;;5.80;99.90;;;;;;5052545;28;20102;-74
2024/01/02 01:56:39;;;;;;;14.70;3.15;;;5.90;99.90;;;;;;5052397;28;20041;-74
2024/01/02 01:59:05;;;;;;;20.60;4.40;;;5.90;99.90;;;;;;5052389;28;20049;-74
2024/01/02 02:01:32;;;;;;;15.13;3.25;;;5.90;99.90;;;;;;5052055;28;20467;-75
2024/01/02 02:04:00;;;;;;;14.45;3.28;;;5.90;99.90;;;;;;5052128;28;20076;-74
2024/01/02 02:06:25;;;;;;;13.80;4.10;;;5.90;99.90;;;;;;5052361;28;20095;-74
2024/01/02 02:08:51;;;;;;;23.83;6.20;;;5.90;99.90;;;;;;5052047;28;20476;-74
2024/01/02 02:11:17;;;;;;;19.30;3.33;;;5.90;99.90;;;;;;5052257;28;20057;-75
2024/01/02 02:13:46;;;;;;;13.85;3.58;;;5.90;99.90;;;;;;5052157;28;20049;-75
2024/01/02 02:16:13;;;;;;;12.27;3.40;;;5.90;99.90;;;;;;5051888;28;20098;-74
2024/01/02 02:18:38;;;;;;;18.52;4.25;;;5.90;99.90;;;;;;5053860;28;20075;-75
2024/01/02 02:21:04;;;;;;;16.95;3.85;;;5.90;99.90;;;;;;5056024;28;20472;-75
2024/01/02 02:23:29;;;;;;;10.30;3.50;;;5.90;99.90;;;;;;5056326;28;20048;-75
2024/01/02 02:25:55;;;;;;;17.08;4.30;;;5.90;99.90;;;;;;5055963;28;20049;-75
2024/01/02 02:28:24;;;;;;;13.65;3.90;;;6.00;99.90;;;;;;5056080;28;20041;-74
2024/01/02 02:30:50;;;;;;;13.75;3.90;;;6.00;99.90;;;;;;5055847;28;20475;-75
2024/01/02 02:33:15;;;;;;;14.25;4.05;;;6.00;99.90;;;;;;5055846;28;20487;-75
2024/01/02 02:35:41;;;;;;;14.43;5.32;;;6.00;99.90;;;;;;5057136;28;20037;-74
2024/01/02 02:38:06;;;;;;;17.60;4.93;;;6.00;99.90;;;;;;5055725;28;20051;-75
2024/01/02 02:40:32;;;;;;;17.13;4.35;;;6.00;99.90;;;;;;5056002;28;20075;-75
2024/01/02 02:42:58;;;;;;;14.38;4.47;;;6.00;99.90;;;;;;5055610;28;20066;-74
2024/01/02 02:45:23;;;;;;;8.93;3.60;;;6.10;99.90;;;;;;5055538;28;20140;-75
2024/01/02 02:47:49;;;;;;;9.68;4.15;;;6.10;99.90;;;;;;5055758;28;20040;-75
2024/01/02 02:50:15;;;;;;;10.25;3.83;;;6.10;99.90;;;;;;5055593;28;20048;-74
2024/01/02 02:52:40;;;;;;;9.98;3.67;;;6.10;99.90;;;;;;5056932;28;20047;-75
2024/01/02 02:55:07;;;;;;;13.25;4.13;;;6.20;99.90;;;;;;5056748;28;20476;-75
2024/01/02 02:57:33;;;;;;;15.07;3.88;;;6.20;99.90;;;;;;5055168;28;20045;-75
2024/01/02 02:59:58;;;;;;;10.15;3.88;;;6.10;99.90;;;;;;5055342;28;20048;-75
2024/01/02 03:02:24;;;;;;;11.52;4.20;;;6.20;99.90;;;;;;5056050;28;20087;-75
2024/01/02 03:04:53;;;;;;;11.93;4.35;;;6.20;99.90;;;;;;5055598;28;20469;-75
2024/01/02 03:07:21;;;;;;;10.25;3.28;;;6.20;99.90;;;;;;5055577;28;20045;-75
2024/01/02 03:09:47;;;;;;;15.85;4.93;;;6.20;99.90;;;;;;5054891;28;20049;-75
2024/01/02 03:12:13;;;;;;;7.40;3.30;;;6.20;99.90;;;;;;5054991;28;20139;-75
2024/01/02 03:14:38;;;;;;;10.45;3.75;;;6.20;99.90;;;;;;5056457;28;20041;-75
2024/01/02 03:17:04;;;;;;;12.98;4.30;;;6.30;99.90;;;;;;5054827;28;20053;-75
2024/01/02 03:19:31;;;;;;;17.17;4.63;;;6.30;99.90;;;;;;5055037;28;20472;-75
2024/01/02 03:21:56;;;;;;;12.15;4.60;;;6.30;99.90;;;;;;5055308;28;20041;-75
2024/01/02 03:24:22;;;;;;;12.65;5.43;;;6.30;99.90;;;;;;5054689;28;20048;-75
2024/01/02 03:26:51;;;;;;;14.20;5.20;;;6.30;99.90;;;;;;5055102;28;20051;-75
2024/01/02 03:29:17;;;;;;;12.30;5.47;;;6.30;99.90;;;;;;5054349;28;20432;-75
2024/01/02 03:31:43;;;;;;;15.63;7.57;;;6.30;99.90;;;;;;5055058;28;20041;-75
2024/01/02 03:34:09;;;;;;;12.80;5.68;;;6.30;99.90;;;;;;5054819;28;20476;-75
2024/01/02 03:36:35;;;;;;;14.93;5.72;;;6.30;99.90;;;;;;5054729;28;20044;-75
2024/01/02 03:39:01;;;;;;;14.05;6.75;;;6.30;99.90;;;;;;5054728;28;20041;-74
2024/01/02 03:41:28;;;;;;;14.65;7.05;;;6.20;99.90;;;;;;5054794;28;20049;-75
2024/01/02 03:43:53;;;;;;;13.38;6.85;;;6.20;99.90;;;;;;5054431;28;20059;-75
2024/01/02 03:46:19;;;;;;;12.10;6.97;;;6.20;99.90;;;;;;5054528;28;20044;-75
2024/01/02 03:48:44;;;;;;;15.90;7.05;;;6.30;99.90;;;;;;5054774;28;20437;-74
2024/01/02 03:51:11;;;;;;;13.68;7.00;;;6.30;99.90;;;;;;5054678;28;20396;-74
2024/01/02 03:53:37;;;;;;;15.73;6.70;;;6.30;99.90;;;;;;5054451;28;20123;-75
2024/01/02 03:56:03;;;;;;;13.32;8.05;;;6.30;99.90;;;;;;5054198;28;20084;-75
2024/01/02 03:58:30;;;;;;;16.27;6.93;;;6.30;99.90;;;;;;5054163;28;20080;-75
2024/01/02 04:00:58;;;;;;;17.73;6.82;;;6.30;99.90;;;;;;5054464;28;20049;-74
2024/01/02 04:03:24;;;;;;;14.20;6.63;;;6.30;99.90;;;;;;5054073;28;20565;-74
2024/01/02 04:05:50;;;;;;;13.77;7.50;;;6.30;99.90;;;;;;5054538;28;20183;-75
2024/01/02 04:08:16;;;;;;;13.38;8.18;;;6.30;99.90;;;;;;5055225;28;20068;-75
2024/01/02 04:10:42;;;;;;;17.10;7.53;;;6.30;99.90;;;;;;5054454;28;20408;-74
2024/01/02 04:13:09;;;;;;;13.90;7.25;;;6.30;99.90;;;;;;5054751;28;20045;-74
2024/01/02 04:15:35;;;;;;;18.70;8.05;;;6.30;99.90;;;;;;5053752;28;20506;-74
2024/01/02 04:18:01;;;;;;;11.40;5.53;;;6.30;99.90;;;;;;5053948;28;20049;-74
2024/01/02 04:20:27;;;;;;;15.00;7.10;;;6.30;99.90;;;;;;5054185;28;20049;-75
2024/01/02 04:22:54;;;;;;;11.45;6.32;;;6.30;99.90;;;;;;5053659;28;20048;-74
2024/01/02 04:25:23;;;;;;;11.27;5.43;;;6.30;99.90;;;;;;5053977;28;20557;-74
2024/01/02 04:27:53;;;;;;;13.38;6.65;;;6.40;99.90;;;;;;5053944;28;20433;-75
2024/01/02 04:30:19;;;;;;;15.25;5.90;;;6.30;99.90;;;;;;5053841;28;20044;-74
2024/01/02 04:32:44;;;;;;;13.70;6.38;;;6.30;99.90;;;;;;5053961;28;20114;-74
2024/01/02 04:35:10;;;;;;;14.90;6.32;;;6.30;99.90;;;;;;5053520;28;20446;-75
2024/01/02 04:37:35;;;;;;;10.90;6.10;;;6.30;99.90;;;;;;5053543;28;20056;-75
2024/01/02 04:40:01;;;;;;;9.20;5.97;;;6.30;99.90;;;;;;5053587;28;20047;-75
2024/01/02 04:42:27;;;;;;;15.32;6.68;;;6.30;99.90;;;;;;5052657;28;20143;-75
2024/01/02 04:44:52;;;;;;;12.13;6.18;;;6.30;99.90;;;;;;5053263;28;20052;-75
2024/01/02 04:47:18;;;;;;;18.88;7.43;;;6.30;99.90;;;;;;5053636;28;20033;-75
2024/01/02 04:49:43;;;;;;;15.05;7.20;;;6.30;99.90;;;;;;5054571;28;20063;-75
2024/01/02 04:52:09;;;;;;;14.63;6.82;;;6.30;99.90;;;;;;5054607;28;20090;-75
2024/01/02 04:54:35;;;;;;;10.27;6.45;;;6.30;99.90;;;;;;5053383;28;20057;-75
2024/01/02 04:57:00;;;;;;;15.30;7.18;;;6.30;99.90;;;;;;5053219;28;20400;-75
2024/01/02 04:59:26;;;;;;;11.30;5.95;;;6.30;99.90;;;;;;5053195;28;20084;-75
2024/01/02 05:01:51;;;;;;;12.07;6.20;;;6.30;99.90;;;;;;5053142;28;20045;-75
2024/01/02 05:04:17;;;;;;;14.40;6.47;;;6.30;99.90;;;;;;5053082;28;20073;-75
2024/01/02 05:06:43;;;;;;;14.85;6.50;;;6.30;99.90;;;;;;5053115;28;20084;-75
2024/01/02 05:09:10;;;;;;;12.82;5.65;;;6.30;99.90;;;;;;5054530;28;20381;-75
2024/01/02 05:11:37;;;;;;;13.40;5.50;;;6.30;99.90;;;;;;5054170;28;20566;-75
2024/01/02 05:14:02;;;;;;;14.02;6.13;;;6.30;99.90;;;;;;5052989;28;20052;-75
2024/01/02 05:16:28;;;;;;;13.35;5.22;;;6.30;99.90;;;;;;5054036;28;20040;-75
2024/01/02 05:18:54;;;;;;;10.57;5.20;;;6.30;99.90;;;;;;5053088;28;20483;-75
2024/01/02 05:21:20;;;;;;;12.85;5.82;;;6.30;99.90;;;;;;5052621;28;20037;-75
2024/01/02 05:23:45;;;;;;;13.32;5.60;;;6.30;99.90;;;;;;5052698;28;20095;-75
2024/01/02 05:26:11;;;;;;;12.30;5.03;;;6.30;99.90;;;;;;5052733;28;20037;-75
2024/01/02 05:28:36;;;;;;;10.60;5.18;;;6.30;99.90;;;;;;5052894;28;20045;-75
2024/01/02 05:31:02;;;;;;;11.35;4.60;;;6.30;99.90;;;;;;5052560;28;20056;-75
2024/01/02 05:33:31;;;;;;;12.00;5.03;;;6.30;99.90;;;;;;5053913;28;20124;-75
2024/01/02 05:35:56;;;;;;;12.50;4.80;;;6.30;99.90;;;;;;5052443;28;20102;-75
2024/01/02 05:38:23;;;;;;;9.32;4.40;;;6.30;99.90;;;;;;5052236;28;20049;-75
2024/01/02 05:40:48;;;;;;;8.48;4.53;;;6.30;99.90;;;;;;5052489;28;20080;-75
2024/01/02 05:43:14;;;;;;;7.90;4.20;;;6.30;99.90;;;;;;5053755;28;20076;-75
2024/01/02 05:45:40;;;;;;;9.55;4.57;;;6.30;99.90;;;;;;5052427;28;20041;-75
2024/01/02 05:48:09;;;;;;;7.75;3.88;;;6.30;99.90;;;;;;5052635;28;20511;-75
2024/01/02 05:50:35;;;;;;;8.23;3.58;;;6.30;99.90;;;;;;5052601;28;20073;-75
2024/01/02 05:53:01;;;;;;;8.43;3.58;;;6.30;99.90;;;;;;5052390;28;20522;-75
2024/01/02 05:55:26;;;;;;;6.55;3.47;;;6.30;99.90;;;;;;5052297;28;20373;-75
2024/01/02 05:57:52;;;;;;;7.68;3.92;;;6.30;99.90;;;;;;5052328;28;20053;-75
2024/01/02 06:00:18;;;;;;;7.03;3.35;;;6.30;99.90;;;;;;5052257;28;20498;-75
2024/01/02 06:02:45;;;;;;;8.65;3.60;;;6.30;99.90;;;;;;5051983;28;20041;-75
2024/01/02 06:05:11;;;;;;;11.25;4.53;;;6.30;99.90;;;;;;5052379;28;20044;-75
2024/01/02 06:07:37;;;;;;;8.45;3.50;;;6.30;99.90;;;;;;5052908;28;20053;-75
2024/01/02 06:10:04;;;;;;;6.63;2.95;;;6.30;99.90;;;;;;5051869;28;20481;-75
2024/01/02 06:12:30;;;;;;;6.40;3.40;;;6.30;99.90;;;;;;5052438;28;20190;-75
2024/01/02 06:14:56;;;;;;;10.05;3.55;;;6.30;99.90;;;;;;5053457;28;20045;-75
2024/01/02 06:17:21;;;;;;;6.07;3.28;;;6.30;99.90;;;;;;5052075;28;20049;-75
2024/01/02 06:19:47;;;;;;;6.72;2.90;;;6.30;99.90;;;;;;5051978;28;20048;-75
2024/01/02 06:22:16;;;;;;;6.10;3.22;;;6.40;99.90;;;;;;5052262;28;20127;-75
2024/01/02 06:24:42;;;;;;;5.53;3.13;;;6.40;99.90;;;;;;5051987;28;20049;-75
2024/01/02 06:27:08;;;;;;;6.95;2.95;;;6.40;99.90;;;;;;5052002;28;20041;-75
2024/01/02 06:29:34;;;;;;;7.88;2.72;;;6.30;99.90;;;;;;5052081;28;20076;-75
2024/01/02 06:31:59;;;;;;;6.38;2.97;;;6.40;99.90;;;;;;5053182;28;20068;-75
2024/01/02 06:34:25;;;;;;;8.85;2.72;;;6.40;99.90;;;;;;5051875;28;20529;-75
2024/01/02 06:36:53;;;;;;;4.25;2.33;;;6.40;99.90;;;;;;5051757;28;20045;-75
2024/01/02 06:39:19;;;;;;;4.32;2.28;;;6.40;99.90;;;;;;5051743;28;20071;-75
2024/01/02 06:41:45;;;;;;;5.13;2.15;;;6.40;99.90;;;;;;5053151;28;20492;-74
2024/01/02 06:44:12;;;;;;;5.20;2.78;;;6.40;99.90;;;;;;5051853;28;20095;-75
2024/01/02 06:46:38;;;;;;;4.95;2.17;;;6.40;99.90;;;;;;5052903;28;20451;-75
2024/01/02 06:49:04;;;;;;;3.70;2.17;;;6.40;99.90;;;;;;5051976;28;20056;-74
2024/01/02 06:51:29;;;;;;;4.22;2.25;;;6.40;99.90;;;;;;5051933;28;20052;-74
2024/01/02 06:53:55;;;;;;;5.53;2.42;;;6.40;99.90;;;;;;5051980;28;20422;-75
2024/01/02 06:56:21;;;;;;;7.47;2.60;;;6.40;99.90;;;;;;5051679;28;20440;-74
2024/01/02 06:58:46;;;;;;;4.25;2.00;;;6.40;99.90;;;;;;5051945;28;20045;-74
2024/01/02 07:01:17;;;;;;;3.78;2.00;;;6.40;99.90;;;;;;5051667;28;20068;-74
2024/01/02 07:03:43;;;;;;;3.67;1.75;;;6.40;99.90;;;;;;5051577;28;20056;-74
2024/01/02 07:06:09;;;;;;;3.38;1.45;;;6.40;99.90;;;;;;5055306;28;20049;-74
2024/01/02 07:08:37;;;;;;;3.22;1.45;;;6.40;99.90;;;;;;5055010;28;20048;-74
2024/01/02 07:11:13;;;;;;;2.90;1.73;;;6.50;99.90;;;;;;5055517;28;20109;-74
2024/01/02 07:13:39;;;;;;;2.22;1.33;;;6.40;99.90;;;;;;5055217;28;20045;-75
2024/01/02 07:16:05;;;;;;;3.35;1.52;;;6.40;99.90;;;;;;5055015;28;20060;-74
2024/01/02 07:18:30;;;;;;;2.90;1.00;;;6.40;99.90;;;;;;5055013;28;20080;-75
2024/01/02 07:20:56;;;;;;;1.90;1.00;;;6.40;99.90;;;;;;5056416;28;20122;-74
2024/01/02 07:23:23;;;;;;;3.30;1.35;;;6.50;99.90;;;;;;5054916;28;20128;-74
2024/01/02 07:25:49;;;;;;;3.33;1.52;;;6.50;99.90;;;;;;5054988;28;20462;-74
2024/01/02 07:28:14;;;;;;;1.88;1.00;;;6.50;99.90;;;;;;5055250;28;20550;-74
2024/01/02 07:30:40;;;;;;;2.90;0.95;;;6.50;99.90;;;;;;5054643;28;20369;-74
2024/01/02 07:33:06;;;;;;;2.60;1.23;;;6.50;99.90;;;;;;5054707;28;20541;-74
2024/01/02 07:35:31;;;;;;;3.00;1.50;;;6.60;99.90;;;;;;5054764;28;20110;-74
2024/01/02 07:37:57;;;;;;;2.60;1.38;;;6.50;99.90;;;;;;5049592;28;20073;-74
2024/01/02 07:40:23;;;;;;;5.25;1.60;;;6.50;99.90;;;;;;5034816;28;20393;-74
2024/01/02 07:42:48;;;;;;;3.80;1.58;;;6.60;99.90;;;;;;5034979;28;20049;-74
2024/01/02 07:45:14;;;;;;;2.60;1.30;;;6.60;99.90;;;;;;5035829;28;20161;-74
2024/01/02 07:47:40;;;;;;;3.42;1.80;;;6.60;99.90;;;;;;5035796;28;20049;-74
2024/01/02 07:50:06;;;;;;;4.50;1.50;;;6.60;99.90;;;;;;5034559;28;20041;-74
2024/01/02 07:52:32;;;;;;;2.85;1.40;;;6.60;99.90;;;;;;5034817;28;20046;-74
2024/01/02 07:54:58;;;;;;;4.30;1.70;;;6.60;99.90;;;;;;5034604;28;20033;-75
2024/01/02 07:57:25;;;;;;;2.83;1.15;;;6.70;99.90;;;;;;5034592;28;20446;-74
2024/01/02 07:59:51;;;;;;;4.05;1.52;;;6.70;99.90;;;;;;5035541;28;20497;-74
2024/01/02 08:02:16;;;;;;;2.95;1.40;;;6.70;99.90;;;;;;5035684;28;20081;-74
2024/01/02 08:04:42;;;;;;;3.53;1.42;;;6.70;99.90;;;;;;5034510;28;20115;-74
2024/01/02 08:07:07;;;;;;;4.63;1.80;;;6.80;99.90;;;;;;5034468;28;20477;-74
2024/01/02 08:09:35;;;;;;;3.28;1.70;;;6.90;99.90;;;;;;5033977;28;20454;-74
2024/01/02 08:12:01;;;;;;;4.50;2.13;;;6.80;99.90;;;;;;5034411;28;20072;-75
2024/01/02 08:14:27;;;;;;;4.05;1.83;;;6.90;99.90;;;;;;5033876;28;20045;-75
2024/01/02 08:16:52;;;;;;;4.45;1.98;;;6.90;99.90;;;;;;5034129;28;20129;-75
2024/01/02 08:19:18;;;;;;;4.18;1.98;;;7.00;99.90;;;;;;5033342;28;20493;-75
2024/01/02 08:21:44;;;;;;;5.80;2.47;;;7.00;99.90;;;;;;5034683;28;20050;-74
2024/01/02 08:24:12;;;;;;;6.22;2.58;;;7.10;99.90;;;;;;5034094;28;20120;-75
2024/01/02 08:26:37;;;;;;;7.47;2.42;;;7.20;99.90;;;;;;5033932;28;20132;-74
2024/01/02 08:29:03;;;;;;;7.75;2.88;;;7.20;99.90;;;;;;5033692;28;20056;-74
2024/01/02 08:31:29;;;;;;;12.00;4.43;;;7.20;99.90;;;;;;5033613;28;20467;-75
2024/01/02 08:33:55;;;;;;;11.30;3.45;;;7.30;99.90;;;;;;5033508;28;20116;-75
2024/01/02 08:36:21;;;;;;;6.75;3.05;;;7.40;99.90;;;;;;5033697;28;20500;-74
2024/01/02 08:38:46;;;;;;;7.22;2.78;;;7.50;99.90;;;;;;5033836;28;20077;-74
2024/01/02 08:41:12;;;;;;;12.73;3.20;;;7.50;99.90;;;;;;5033672;28;20436;-74
2024/01/02 08:43:38;;;;;;;10.05;3.95;;;7.60;99.90;;;;;;5033587;28;20049;-74
2024/01/02 08:46:03;;;;;;;13.60;4.47;;;7.60;99.90;;;;;;5033333;28;20077;-75
2024/01/02 08:48:29;;;;;;;11.80;3.85;;;7.60;99.90;;;;;;5033485;28;20128;-75
2024/01/02 08:50:55;;;;;;;13.93;3.45;;;7.60;99.90;;;;;;5033628;28;20408;-75
2024/01/02 08:53:23;;;;;;;14.55;4.13;;;7.70;99.90;;;;;;5033185;28;20046;-75
2024/01/02 08:55:49;;;;;;;14.05;3.63;;;7.80;99.90;;;;;;5033145;28;20056;-75
2024/01/02 08:58:15;;;;;;;15.23;2.90;;;7.70;99.90;;;;;;5033017;28;20059;-75
2024/01/02 09:00:40;;;;;;;14.20;2.80;;;7.80;99.90;;;;;;5033038;28;20041;-75
2024/01/02 09:03:08;;;;;;;20.80;4.07;;;7.90;99.90;;;;;;5033087;28;20094;-75
2024/01/02 09:05:33;;;;;;;24.58;3.70;;;7.90;99.90;;;;;;5039719;28;20041;-74
2024/01/02 09:08:00;;;;;;;18.25;2.67;;;8.10;99.90;;;;;;5038151;28;20052;-74
2024/01/02 09:10:27;;;;;;;22.23;4.50;;;8.20;99.90;;;;;;5032557;28;20057;-74
2024/01/02 09:12:52;;;;;;;22.75;4.93;;;8.20;99.90;;;;;;5033767;28;20393;-74
2024/01/02 09:15:18;;;;;;;29.23;4.53;;;8.30;99.90;;;;;;5033985;28;20041;-74
2024/01/02 09:17:44;;;;;;;22.90;3.42;;;8.40;99.90;;;;;;5032628;28;20081;-74
2024/01/02 09:20:11;;;;;;;27.10;3.97;;;8.40;99.90;;;;;;5032466;28;20405;-75
2024/01/02 09:22:37;;;;;;;32.70;4.45;;;8.50;99.90;;;;;;5032356;28;20050;-78
2024/01/02 09:25:03;;;;;;;25.02;4.78;;;8.60;99.90;;;;;;5032539;28;20047;-74
2024/01/02 09:27:29;;;;;;;19.40;3.35;;;8.60;99.90;;;;;;5032238;28;20045;-76
2024/01/02 09:29:58;;;;;;;32.65;5.20;;;8.60;99.90;;;;;;5033626;28;20053;-75
2024/01/02 09:32:25;;;;;;;21.55;4.63;;;8.70;99.90;;;;;;5032497;28;20045;-75
2024/01/02 09:34:52;;;;;;;23.48;3.95;;;8.70;99.90;;;;;;5033807;28;20128;-74
2024/01/02 09:37:17;;;;;;;24.70;4.63;;;8.80;99.90;;;;;;5032219;28;20045;-74
2024/01/02 09:39:44;;;;;;;29.95;3.75;;;8.80;99.90;;;;;;5032324;28;20041;-74
2024/01/02 09:42:34;;;;;;;21.80;2.83;;;8.90;99.90;;;;;;5032079;28;20033;-74
2024/01/02 09:45:17;;;;;;;23.42;3.63;;;8.90;99.90;;;;;;5032460;28;20499;-74
2024/01/02 09:48:08;;;;;;;;;;;8.90;99.90;;;;;;5032690;28;20136;-74
2024/01/02 09:50:46;;;;;;;23.67;3.95;;;8.90;99.90;;;;;;5032415;28;19920;-74
2024/01/02 09:53:37;;;;;;;16.38;2.70;;;9.00;99.90;;;;;;5032335;28;20076;-74
2024/01/02 09:56:22;;;;;;;21.77;3.15;;;9.00;99.90;;;;;;5028091;28;20172;-74
2024/01/02 09:58:57;;;;;;;27.20;3.15;;;9.10;99.90;;;;;;5031943;28;20053;-74
2024/01/02 10:01:40;;;;;;;21.73;3.80;;;9.10;99.90;;;;;;5032311;28;20050;-75
2024/01/02 10:04:42;;;;;;;20.77;3.70;;;9.20;99.90;;;;;;5031979;28;20106;-74
2024/01/02 10:07:32;;;;;;;20.27;2.75;;;9.20;99.90;;;;;;5001081;28;20448;-76
2024/01/02 10:10:27;;;;;;;17.67;3.17;;;9.20;99.90;;;;;;5031834;28;20504;-74
2024/01/02 10:13:23;;;;;;;21.02;4.40;;;9.20;99.90;;;;;;4963192;28;20466;-74
2024/01/02 10:15:56;;;;;;;20.63;2.83;;;9.30;99.90;;;;;;5031854;28;20053;-74
2024/01/02 10:18:26;;;;;;;20.67;3.13;;;9.20;99.90;;;;;;5031706;28;20107;-74
2024/01/02 10:21:06;;;;;;;23.42;2.78;;;9.20;99.90;;;;;;5031924;28;20042;-74
2024/01/02 10:23:58;;;;;;;23.15;4.03;;;9.30;99.90;;;;;;5032082;28;20045;-75
2024/01/02 10:26:26;;;;;;;24.10;3.78;;;9.30;99.90;;;;;;5032060;28;20053;-75
2024/01/02 10:28:57;;;;;;;21.92;2.83;;;9.30;99.90;;;;;;5031671;28;20045;-74
2024/01/02 10:32:03;;;;;;;21.70;3.90;;;9.30;99.90;;;;;;5031680;28;20412;-75
2024/01/02 10:34:42;;;;;;;23.25;3.55;;;9.30;99.90;;;;;;5031883;28;20045;-75
2024/01/02 10:37:12;;;;;;;28.45;4.22;;;9.40;99.90;;;;;;5032310;28;20049;-75
2024/01/02 10:40:00;;;;;;;20.92;4.25;;;9.40;99.90;;;;;;5033081;28;20052;-75
2024/01/02 10:42:48;;;;;;;25.27;5.28;;;9.40;99.90;;;;;;5035603;28;20135;-74
2024/01/02 10:45:20;;;;;;;21.77;3.28;;;9.50;99.90;;;;;;5035788;28;20120;-75
2024/01/02 10:48:14;;;;;;;25.65;3.75;;;9.50;99.90;;;;;;5035630;28;20057;-75
2024/01/02 10:50:56;;;;;;;22.58;4.53;;;9.50;99.90;;;;;;5035578;28;20091;-75
2024/01/02 10:53:35;;;;;;;25.75;4.18;;;9.60;99.90;;;;;;5035344;28;20057;-75
2024/01/02 10:56:14;;;;;;;19.98;3.00;;;9.60;99.90;;;;;;5035255;28;20507;-75
2024/01/02 10:59:03;;;;;;;22.63;3.47;;;9.60;99.90;;;;;;5034995;28;20492;-75
2024/01/02 11:01:32;;;;;;;21.88;4.32;;;9.60;99.90;;;;;;4997236;28;20053;-74
2024/01/02 11:04:05;;;;;;;31.95;3.88;;;9.60;99.90;;;;;;5035214;28;20077;-74
2024/01/02 11:06:42;;;;;;;23.20;4.22;;;9.60;99.90;;;;;;5035063;28;20481;-75
2024/01/02 11:09:26;;;;;;;29.80;4.45;;;9.60;99.90;;;;;;5034918;28;20793;-75
2024/01/02 11:11:54;;;;;;;27.42;3.60;;;9.70;99.90;;;;;;5034939;28;20088;-75
2024/01/02 11:14:24;;;;;;;23.38;3.95;;;9.60;99.90;;;;;;5034842;28;20443;-75
2024/01/02 11:16:56;;;;;;;25.25;4.30;;;9.60;99.90;;;;;;5034789;28;20045;-75
2024/01/02 11:19:31;;;;;;;26.75;3.50;;;9.60;99.90;;;;;;5034834;28;20496;-75
2024/01/02 11:22:26;;;;;;;26.60;4.22;;;9.70;99.90;;;;;;5035079;28;20136;-74
2024/01/02 11:25:00;;;;;;;21.83;3.00;;;9.60;99.90;;;;;;5035010;28;20124;-75
2024/01/02 11:27:28;;;;;;;29.08;5.25;;;9.60;99.90;;;;;;5034693;28;20045;-75
2024/01/02 11:29:56;;;;;;;22.15;3.10;;;9.70;99.90;;;;;;5034779;28;20041;-75
2024/01/02 11:32:39;;;;;;;25.20;3.45;;;9.70;99.90;;;;;;5034908;28;20056;-75
2024/01/02 11:35:06;;;;;;;;;;;9.70;99.90;;;;;;5035020;28;20064;-75
2024/01/02 11:37:40;;;;;;;26.45;5.45;;;9.70;99.90;;;;;;5034597;28;19921;-75
2024/01/02 11:40:28;;;;;;;23.58;3.25;;;9.70;99.90;;;;;;5034340;28;20049;-75
2024/01/02 11:43:05;;;;;;;22.10;4.18;;;9.70;99.90;;;;;;5034633;28;20056;-75
2024/01/02 11:45:33;;;;;;;24.52;3.35;;;9.70;99.90;;;;;;5034583;28;20045;-75
2024/01/02 11:48:26;;;;;;;26.13;3.50;;;9.70;99.90;;;;;;5034269;28;20049;-75
2024/01/02 11:50:57;;;;;;;26.63;3.90;;;9.80;99.90;;;;;;5034442;28;20053;-75
2024/01/02 11:53:35;;;;;;;25.58;4.00;;;9.80;99.90;;;;;;5034753;28;20057;-75
2024/01/02 11:56:08;;;;;;;18.17;3.47;;;9.80;99.90;;;;;;5034045;28;20100;-75
2024/01/02 11:58:58;;;;;;;17.63;3.33;;;9.80;99.90;;;;;;5033976;28;20373;-75
2024/01/02 12:01:50;;;;;;;21.00;4.25;;;9.80;99.90;;;;;;5034279;28;20049;-75
2024/01/02 12:04:29;;;;;;;22.23;3.38;;;9.80;99.90;;;;;;5020357;28;20089;-74
2024/01/02 12:07:10;;;;;;;30.30;4.60;;;9.80;99.90;;;;;;5033881;28;20128;-74
2024/01/02 12:09:46;;;;;;;31.50;4.35;;;9.80;99.90;;;;;;5033867;28;20126;-74
2024/01/02 12:12:39;;;;;;;26.98;4.47;;;9.80;99.90;;;;;;5033756;28;20390;-75
2024/01/02 12:15:19;;;;;;;26.50;4.47;;;9.90;99.90;;;;;;5033895;28;20060;-75
2024/01/02 12:17:58;;;;;;;20.60;3.10;;;9.80;99.90;;;;;;5033673;28;20053;-75
2024/01/02 12:20:25;;;;;;;24.33;3.58;;;9.80;99.90;;;;;;5033908;28;20045;-75
2024/01/02 12:22:52;;;;;;;21.17;3.83;;;9.80;99.90;;;;;;5033559;28;20046;-74
2024/01/02 12:25:19;;;;;;;21.90;4.45;;;9.80;99.90;;;;;;5033814;28;20068;-75
2024/01/02 12:27:50;;;;;;;19.15;3.33;;;9.80;99.90;;;;;;5033434;28;20083;-75
2024/01/02 12:30:41;;;;;;;23.65;3.47;;;9.80;99.90;;;;;;5033390;28;20057;-74
2024/01/02 12:33:31;;;;;;;25.08;4.20;;;9.80;99.90;;;;;;5032598;28;20404;-75
2024/01/02 12:36:23;;;;;;;17.85;2.85;;;9.70;99.90;;;;;;5033531;28;20077;-75
2024/01/02 12:38:51;;;;;;;22.13;4.80;;;9.70;99.90;;;;;;5033228;28;20045;-74
2024/01/02 12:41:25;;;;;;;27.75;4.25;;;9.80;99.90;;;;;;5033221;28;20053;-74
2024/01/02 12:43:55;;;;;;;27.73;5.55;;;9.80;99.90;;;;;;5033423;28;20065;-75
2024/01/02 12:46:50;;;;;;;22.08;3.63;;;9.80;99.90;;;;;;5033328;28;20041;-74
2024/01/02 12:49:26;;;;;;;25.30;5.20;;;9.70;99.90;;;;;;5024047;28;20492;-75
2024/01/02 12:52:03;;;;;;;16.35;4.05;;;9.80;99.90;;;;;;5033390;28;20049;-75
2024/01/02 12:54:29;;;;;;;25.92;4.00;;;9.80;99.90;;;;;;5033299;28;20079;-74
2024/01/02 12:57:02;;;;;;;24.15;4.40;;;9.80;99.90;;;;;;5033113;28;20484;-74
2024/01/02 12:59:29;;;;;;;;;;;9.80;99.90;;;;;;5033535;28;20057;-75
2024/01/02 13:01:58;;;;;;;27.00;5.15;;;9.70;99.90;;;;;;5032170;28;20268;-75